Time;durP1;ratioP1;P1;durP2;ratioP2;P2;SDS_P1;SDS_P2;PMS_P1;PMS_P2;Temp;Humidity;BMP_temperature;BMP_pressure;BME280_temperature;BME280_humidity;BME280_pressure;Samples;Min_cycle;Max_cycle;Signal;HPM_P1;HPM_P2
2023/11/06 00:00:04;;;;;;;0.77;0.70;;;;;;;8.88;100.00;96739.59;5056649;28;20211;-80
2023/11/06 00:02:32;;;;;;;1.03;0.60;;;;;;;8.89;100.00;96741.28;5056374;28;20407;-80
2023/11/06 00:04:58;;;;;;;2.87;0.60;;;;;;;8.88;100.00;96747.50;5056077;28;20211;-80
2023/11/06 00:07:25;;;;;;;1.13;0.70;;;;;;;8.88;100.00;96748.31;5056572;28;20207;-80
2023/11/06 00:09:51;;;;;;;0.87;0.63;;;;;;;8.82;100.00;96750.66;5056196;28;20221;-80
2023/11/06 00:12:18;;;;;;;2.00;0.60;;;;;;;8.82;100.00;96751.47;5056084;28;20674;-80
2023/11/06 00:14:45;;;;;;;1.43;0.70;;;;;;;8.80;100.00;96750.78;5055703;28;20219;-80
2023/11/06 00:17:11;;;;;;;0.60;0.60;;;;;;;8.78;100.00;96754.50;5056137;28;20204;-81
2023/11/06 00:19:39;;;;;;;0.60;0.60;;;;;;;8.74;100.00;96753.06;5055752;28;20247;-81
2023/11/06 00:22:06;;;;;;;1.93;0.73;;;;;;;8.68;100.00;96751.81;5055840;28;20246;-81
2023/11/06 00:24:32;;;;;;;2.10;0.60;;;;;;;8.65;100.00;96753.84;5055461;28;20218;-81
2023/11/06 00:26:59;;;;;;;2.07;0.90;;;;;;;8.59;100.00;96757.84;5055663;28;20208;-81
2023/11/06 00:29:28;;;;;;;1.03;0.63;;;;;;;8.46;100.00;96754.53;5055354;28;20514;-81
2023/11/06 00:31:54;;;;;;;1.43;0.60;;;;;;;8.34;100.00;96754.72;5055915;28;20236;-81
2023/11/06 00:34:21;;;;;;;1.83;0.80;;;;;;;8.28;100.00;96763.97;5055570;28;20216;-82
2023/11/06 00:36:49;;;;;;;1.13;0.80;;;;;;;8.24;100.00;96764.31;5055408;28;20559;-80
2023/11/06 00:39:16;;;;;;;0.77;0.60;;;;;;;8.25;100.00;96765.97;5056123;28;20499;-80
2023/11/06 00:41:42;;;;;;;1.23;0.60;;;;;;;8.30;100.00;96774.34;5054827;28;20234;-80
2023/11/06 00:44:09;;;;;;;1.43;0.80;;;;;;;8.45;100.00;96773.94;5055549;28;20713;-80
2023/11/06 00:46:35;;;;;;;1.67;0.80;;;;;;;8.46;100.00;96769.50;5056110;28;20210;-80
2023/11/06 00:49:02;;;;;;;1.60;0.83;;;;;;;8.50;100.00;96776.22;5055486;28;20218;-80
2023/11/06 00:51:28;;;;;;;2.43;0.70;;;;;;;8.49;100.00;96769.25;5055217;28;20233;-80
2023/11/06 00:53:56;;;;;;;1.00;0.90;;;;;;;8.49;100.00;96777.13;5055050;28;20204;-80
2023/11/06 00:56:22;;;;;;;1.13;0.80;;;;;;;8.52;100.00;96775.09;5055702;28;20211;-80
2023/11/06 00:58:49;;;;;;;1.63;0.70;;;;;;;8.56;100.00;96775.69;5055657;28;20214;-81
2023/11/06 01:01:16;;;;;;;1.57;0.80;;;;;;;8.61;100.00;96778.75;5055400;28;20239;-81
2023/11/06 01:03:42;;;;;;;1.37;0.70;;;;;;;8.65;100.00;96785.47;5055237;28;20255;-81
2023/11/06 01:06:10;;;;;;;3.00;1.00;;;;;;;8.65;100.00;96780.19;5055043;28;20677;-81
2023/11/06 01:08:36;;;;;;;1.93;0.70;;;;;;;8.66;100.00;96792.41;5055651;28;20210;-81
2023/11/06 01:11:05;;;;;;;1.80;0.90;;;;;;;8.71;100.00;96790.22;5055379;28;20232;-81
2023/11/06 01:13:31;;;;;;;2.37;0.90;;;;;;;8.77;100.00;96789.72;5055058;28;20204;-81
2023/11/06 01:15:58;;;;;;;0.97;0.77;;;;;;;8.70;100.00;96778.03;5055141;28;20616;-81
2023/11/06 01:18:24;;;;;;;1.40;0.70;;;;;;;8.75;100.00;96776.66;5054798;28;20262;-80
2023/11/06 01:20:50;;;;;;;0.70;0.70;;;;;;;8.72;100.00;96786.63;5054653;28;20738;-80
2023/11/06 01:23:17;;;;;;;2.83;1.07;;;;;;;8.66;100.00;96781.84;5054918;28;20235;-80
2023/11/06 01:25:44;;;;;;;1.33;1.00;;;;;;;8.62;100.00;96785.72;5055033;28;20223;-80
2023/11/06 01:28:12;;;;;;;2.37;0.90;;;;;;;8.52;100.00;96790.06;5055043;28;20671;-80
2023/11/06 01:30:38;;;;;;;2.10;0.80;;;;;;;8.48;100.00;96793.91;5054969;28;20744;-80
2023/11/06 01:33:05;;;;;;;4.13;1.10;;;;;;;8.43;100.00;96782.91;5055199;28;20577;-80
2023/11/06 01:35:32;;;;;;;0.90;0.70;;;;;;;8.40;100.00;96778.72;5055318;28;20218;-81
2023/11/06 01:38:00;;;;;;;0.87;0.83;;;;;;;8.38;100.00;96793.00;5054941;28;20207;-80
2023/11/06 01:40:29;;;;;;;3.57;0.90;;;;;;;8.33;100.00;96801.25;5055266;28;20210;-80
2023/11/06 01:42:55;;;;;;;1.53;0.70;;;;;;;8.27;100.00;96795.66;5055069;28;20270;-80
2023/11/06 01:45:23;;;;;;;6.33;1.30;;;;;;;8.22;100.00;96792.56;5055228;28;20212;-81
2023/11/06 01:47:51;;;;;;;2.27;1.67;;;;;;;8.21;100.00;96785.63;5055459;28;20209;-80
2023/11/06 01:50:18;;;;;;;2.80;0.77;;;;;;;8.19;100.00;96787.50;5055353;28;20214;-81
2023/11/06 01:52:44;;;;;;;1.73;0.70;;;;;;;8.15;100.00;96794.00;5054727;28;20234;-80
2023/11/06 01:55:12;;;;;;;1.17;0.70;;;;;;;8.04;100.00;96788.75;5054996;28;20204;-80
2023/11/06 01:57:39;;;;;;;2.20;0.87;;;;;;;7.93;100.00;96797.50;5054765;28;20221;-80
2023/11/06 02:00:08;;;;;;;3.13;0.97;;;;;;;7.84;100.00;96802.66;5055026;28;20207;-80
2023/11/06 02:02:36;;;;;;;1.20;1.00;;;;;;;7.90;100.00;96799.56;5055481;28;20289;-81
2023/11/06 02:05:03;;;;;;;1.40;1.00;;;;;;;7.86;100.00;96806.84;5055256;28;20499;-80
2023/11/06 02:07:30;;;;;;;3.73;0.80;;;;;;;7.86;100.00;96811.25;5055248;28;20215;-80
2023/11/06 02:09:58;;;;;;;1.10;0.70;;;;;;;7.83;100.00;96816.78;5055645;28;20318;-81
2023/11/06 02:12:24;;;;;;;4.40;1.30;;;;;;;7.82;100.00;96815.06;5056391;28;20602;-80
2023/11/06 02:14:52;;;;;;;1.93;1.10;;;;;;;7.82;100.00;96822.97;5055057;28;20218;-80
2023/11/06 02:17:18;;;;;;;2.13;1.20;;;;;;;7.79;100.00;96823.22;5055176;28;20223;-80
2023/11/06 02:19:46;;;;;;;5.10;0.90;;;;;;;7.81;100.00;96821.31;5055334;28;20207;-80
2023/11/06 02:22:17;;;;;;;1.43;0.70;;;;;;;7.84;100.00;96818.44;5055252;28;20238;-80
2023/11/06 02:24:45;;;;;;;1.73;0.90;;;;;;;7.79;100.00;96818.78;5055269;28;20209;-80
2023/11/06 02:27:11;;;;;;;2.20;1.07;;;;;;;7.76;100.00;96815.56;5056871;28;20218;-80
2023/11/06 02:29:38;;;;;;;0.77;0.70;;;;;;;7.77;100.00;96825.16;5059001;28;20212;-80
2023/11/06 02:32:05;;;;;;;3.77;0.83;;;;;;;7.75;100.00;96833.16;5058448;28;20240;-80
2023/11/06 02:34:31;;;;;;;4.17;0.80;;;;;;;7.76;100.00;96841.84;5057673;28;20210;-80
2023/11/06 02:36:58;;;;;;;1.97;0.80;;;;;;;7.73;100.00;96831.59;5057365;28;20264;-80
2023/11/06 02:39:24;;;;;;;3.77;1.00;;;;;;;7.76;100.00;96847.97;5054548;28;20217;-80
2023/11/06 02:41:52;;;;;;;2.00;0.80;;;;;;;7.76;100.00;96849.75;5053948;28;20237;-80
2023/11/06 02:44:18;;;;;;;4.17;0.87;;;;;;;7.79;100.00;96846.91;5055190;28;20230;-80
2023/11/06 02:46:46;;;;;;;2.43;0.90;;;;;;;7.80;100.00;96853.81;5054253;28;20219;-80
2023/11/06 02:49:12;;;;;;;1.10;0.60;;;;;;;7.76;100.00;96855.00;5054699;28;20300;-81
2023/11/06 02:51:39;;;;;;;1.00;0.60;;;;;;;7.82;100.00;96846.63;5054169;28;20770;-81
2023/11/06 02:54:07;;;;;;;1.67;0.80;;;;;;;7.85;100.00;96867.47;5053795;28;20204;-80
2023/11/06 02:56:34;;;;;;;1.40;0.63;;;;;;;7.83;100.00;96864.94;5053643;28;20723;-80
2023/11/06 02:59:04;;;;;;;1.53;0.60;;;;;;;7.78;100.00;96866.28;5053547;28;20226;-80
2023/11/06 03:01:30;;;;;;;3.37;1.00;;;;;;;7.77;100.00;96869.84;5053203;28;20236;-80
2023/11/06 03:03:58;;;;;;;2.07;0.80;;;;;;;7.73;100.00;96876.31;5053344;28;20230;-80
2023/11/06 03:06:27;;;;;;;0.80;0.53;;;;;;;7.71;100.00;96875.59;5061679;28;20213;-80
2023/11/06 03:08:53;;;;;;;2.07;0.73;;;;;;;7.66;100.00;96883.81;5063056;28;20211;-80
2023/11/06 03:11:20;;;;;;;2.67;0.70;;;;;;;7.68;100.00;96883.69;5061251;28;20234;-80
2023/11/06 03:13:47;;;;;;;3.23;1.00;;;;;;;7.67;100.00;96889.94;5059979;28;20210;-80
2023/11/06 03:16:15;;;;;;;1.80;0.70;;;;;;;7.60;100.00;96893.97;5059281;28;20213;-80
2023/11/06 03:18:42;;;;;;;1.40;0.70;;;;;;;7.63;100.00;96896.38;5057180;28;20306;-81
2023/11/06 03:21:08;;;;;;;3.20;0.70;;;;;;;7.63;100.00;96899.00;5057048;28;20242;-80
2023/11/06 03:23:35;;;;;;;3.90;0.70;;;;;;;7.63;100.00;96905.09;5057272;28;20235;-80
2023/11/06 03:26:02;;;;;;;2.00;0.77;;;;;;;7.61;100.00;96919.31;5058209;28;20673;-80
2023/11/06 03:28:29;;;;;;;1.40;0.60;;;;;;;7.67;100.00;96924.97;5059182;28;20214;-80
2023/11/06 03:30:55;;;;;;;0.90;0.70;;;;;;;7.67;100.00;96916.22;5058489;28;20248;-80
2023/11/06 03:33:23;;;;;;;2.57;0.50;;;;;;;7.69;100.00;96925.66;5057754;28;20206;-80
2023/11/06 03:35:50;;;;;;;1.43;0.67;;;;;;;7.73;100.00;96921.00;5058433;28;20642;-81
2023/11/06 03:38:16;;;;;;;2.40;0.73;;;;;;;7.88;100.00;96940.84;5058923;28;20211;-81
2023/11/06 03:40:43;;;;;;;1.17;0.80;;;;;;;8.02;100.00;96943.28;5057955;28;20218;-81
2023/11/06 03:43:10;;;;;;;1.23;0.73;;;;;;;8.11;100.00;96938.13;5058539;28;20706;-80
2023/11/06 03:45:36;;;;;;;1.70;0.70;;;;;;;8.20;100.00;96944.50;5058766;28;20337;-81
2023/11/06 03:48:03;;;;;;;0.70;0.60;;;;;;;8.28;100.00;96958.72;5058459;28;20220;-81
2023/11/06 03:50:30;;;;;;;1.43;0.77;;;;;;;8.34;100.00;96966.13;5058019;28;20235;-81
2023/11/06 03:52:57;;;;;;;1.13;0.80;;;;;;;8.42;100.00;96962.91;5057983;28;20614;-80
2023/11/06 03:55:23;;;;;;;1.10;0.60;;;;;;;8.44;100.00;96967.09;5058335;28;20226;-80
2023/11/06 03:57:50;;;;;;;1.10;0.60;;;;;;;8.47;100.00;96974.75;5058169;28;20214;-80
2023/11/06 04:00:17;;;;;;;1.23;1.10;;;;;;;8.51;100.00;96972.72;5058025;28;20223;-80
2023/11/06 04:02:44;;;;;;;2.53;0.70;;;;;;;8.52;100.00;96963.84;5056614;28;20227;-80
2023/11/06 04:05:10;;;;;;;2.43;0.80;;;;;;;8.50;100.00;96966.59;5056528;28;20226;-80
2023/11/06 04:07:38;;;;;;;2.63;0.97;;;;;;;8.40;100.00;96975.34;5056312;28;20211;-80
2023/11/06 04:10:06;;;;;;;1.50;0.50;;;;;;;8.27;100.00;96974.63;5055148;28;20336;-80
2023/11/06 04:12:32;;;;;;;3.73;0.67;;;;;;;8.19;100.00;96985.75;5056340;28;20229;-80
2023/11/06 04:14:59;;;;;;;0.93;0.70;;;;;;;8.11;100.00;96990.75;5055131;28;20573;-80
2023/11/06 04:17:26;;;;;;;2.63;0.70;;;;;;;8.09;100.00;96991.81;5055409;28;20215;-80
2023/11/06 04:19:53;;;;;;;0.93;0.70;;;;;;;8.04;100.00;96999.22;5055833;28;20218;-80
2023/11/06 04:22:19;;;;;;;2.90;0.90;;;;;;;8.06;100.00;96995.53;5055707;28;20232;-80
2023/11/06 04:24:47;;;;;;;3.33;0.67;;;;;;;8.15;100.00;96992.19;5056096;28;20576;-80
2023/11/06 04:27:14;;;;;;;2.00;1.00;;;;;;;8.26;100.00;96994.03;5056147;28;20224;-80
2023/11/06 04:29:40;;;;;;;2.07;0.70;;;;;;;8.35;100.00;97003.81;5055960;28;20243;-80
2023/11/06 04:32:07;;;;;;;3.37;0.80;;;;;;;8.42;100.00;97007.66;5055805;28;20605;-81
2023/11/06 04:34:34;;;;;;;1.47;0.60;;;;;;;8.53;100.00;97011.13;5055628;28;20299;-80
2023/11/06 04:37:00;;;;;;;2.53;0.70;;;;;;;8.58;100.00;97010.75;5056146;28;20222;-80
2023/11/06 04:39:27;;;;;;;0.90;0.63;;;;;;;8.64;100.00;97010.28;5056495;28;20217;-80
2023/11/06 04:41:54;;;;;;;1.90;0.80;;;;;;;8.67;100.00;97004.75;5055591;28;20244;-80
2023/11/06 04:44:21;;;;;;;1.50;0.77;;;;;;;8.58;100.00;97008.13;5055269;28;20234;-80
2023/11/06 04:46:47;;;;;;;2.23;0.70;;;;;;;8.47;100.00;97008.13;5056015;28;20268;-80
2023/11/06 04:49:14;;;;;;;3.40;0.90;;;;;;;8.38;100.00;97014.13;5055937;28;20274;-80
2023/11/06 04:51:40;;;;;;;2.17;0.80;;;;;;;8.23;100.00;97015.31;5056314;28;20229;-80
2023/11/06 04:54:07;;;;;;;1.67;0.70;;;;;;;8.02;100.00;97017.75;5056092;28;20280;-80
2023/11/06 04:56:33;;;;;;;1.53;0.70;;;;;;;7.81;100.00;97019.41;5056225;28;20205;-80
2023/11/06 04:59:01;;;;;;;1.90;0.67;;;;;;;7.71;100.00;97022.84;5055621;28;20217;-80
2023/11/06 05:01:27;;;;;;;2.40;0.90;;;;;;;7.67;100.00;97034.53;5055197;28;20226;-80
2023/11/06 05:03:54;;;;;;;2.10;0.60;;;;;;;7.60;100.00;97042.03;5055463;28;20224;-80
2023/11/06 05:06:20;;;;;;;1.97;0.77;;;;;;;7.59;100.00;97047.44;5055771;28;20211;-80
2023/11/06 05:08:47;;;;;;;2.93;0.80;;;;;;;7.63;100.00;97051.50;5055943;28;20214;-80
2023/11/06 05:11:13;;;;;;;3.07;0.77;;;;;;;7.62;100.00;97049.81;5055513;28;20230;-80
2023/11/06 05:13:40;;;;;;;2.40;0.83;;;;;;;7.67;100.00;97052.94;5055538;28;20625;-80
2023/11/06 05:16:09;;;;;;;2.00;0.60;;;;;;;7.69;100.00;97058.94;5055120;28;20595;-80
2023/11/06 05:18:36;;;;;;;2.10;0.80;;;;;;;7.70;100.00;97057.97;5055432;28;20215;-80
2023/11/06 05:21:02;;;;;;;2.67;0.70;;;;;;;7.75;100.00;97055.84;5055307;28;20225;-80
2023/11/06 05:23:29;;;;;;;2.27;0.70;;;;;;;7.75;100.00;97058.47;5054860;28;20559;-80
2023/11/06 05:25:55;;;;;;;1.80;0.83;;;;;;;7.73;100.00;97057.75;5054946;28;20234;-80
2023/11/06 05:28:22;;;;;;;1.30;1.00;;;;;;;7.73;100.00;97060.38;5054705;28;20209;-80
2023/11/06 05:30:48;;;;;;;1.23;0.80;;;;;;;7.60;100.00;97062.25;5054541;28;20206;-80
2023/11/06 05:33:17;;;;;;;0.70;0.70;;;;;;;7.55;100.00;97069.63;5055040;28;20307;-80
2023/11/06 05:35:43;;;;;;;1.53;0.73;;;;;;;7.48;100.00;97069.25;5055323;28;20213;-80
2023/11/06 05:38:10;;;;;;;1.80;0.60;;;;;;;7.49;100.00;97065.69;5055222;28;20211;-80
2023/11/06 05:40:36;;;;;;;2.47;0.67;;;;;;;7.48;100.00;97069.25;5054451;28;20221;-80
2023/11/06 05:43:03;;;;;;;1.60;0.77;;;;;;;7.47;100.00;97077.25;5055097;28;20215;-80
2023/11/06 05:45:29;;;;;;;1.30;0.80;;;;;;;7.43;100.00;97081.91;5054869;28;20237;-80
2023/11/06 05:47:56;;;;;;;3.80;0.70;;;;;;;7.53;100.00;97095.22;5055552;28;20260;-80
2023/11/06 05:50:24;;;;;;;0.83;0.80;;;;;;;7.55;100.00;97090.66;5055681;28;20215;-80
2023/11/06 05:52:50;;;;;;;1.37;0.60;;;;;;;7.55;100.00;97088.03;5055167;28;20232;-80
2023/11/06 05:55:17;;;;;;;1.60;0.70;;;;;;;7.46;100.00;97093.94;5056886;28;20594;-80
2023/11/06 05:57:44;;;;;;;2.70;0.93;;;;;;;7.36;100.00;97095.59;5056765;28;20218;-80
2023/11/06 06:00:12;;;;;;;1.97;1.03;;;;;;;7.35;100.00;97101.81;5054335;28;20600;-80
2023/11/06 06:02:38;;;;;;;1.30;0.87;;;;;;;7.33;100.00;97101.06;5054039;28;20337;-80
2023/11/06 06:05:05;;;;;;;2.00;0.80;;;;;;;7.31;100.00;97113.47;5053835;28;20235;-80
2023/11/06 06:07:33;;;;;;;1.47;0.80;;;;;;;7.28;100.00;97108.47;5053988;28;20683;-81
2023/11/06 06:10:00;;;;;;;2.90;0.90;;;;;;;7.23;100.00;97115.84;5054055;28;20555;-81
2023/11/06 06:12:27;;;;;;;1.83;0.80;;;;;;;7.19;100.00;97124.88;5054717;28;20717;-81
2023/11/06 06:14:55;;;;;;;1.07;0.70;;;;;;;7.11;100.00;97124.59;5054132;28;20216;-80
2023/11/06 06:17:22;;;;;;;1.33;0.80;;;;;;;7.09;100.00;97126.47;5052643;28;20212;-80
2023/11/06 06:19:48;;;;;;;1.43;0.80;;;;;;;7.03;100.00;97129.53;5054542;28;20610;-81
2023/11/06 06:22:15;;;;;;;1.80;0.60;;;;;;;6.99;100.00;97130.72;5054062;28;20232;-81
2023/11/06 06:24:44;;;;;;;1.70;0.70;;;;;;;7.01;100.00;97136.69;5054233;28;20241;-80
2023/11/06 06:27:11;;;;;;;1.57;1.23;;;;;;;7.02;100.00;97133.13;5054395;28;20245;-81
2023/11/06 06:29:37;;;;;;;1.93;0.70;;;;;;;6.96;100.00;97143.22;5054247;28;20211;-80
2023/11/06 06:32:04;;;;;;;1.90;0.80;;;;;;;6.92;100.00;97141.75;5054884;28;20236;-79
2023/11/06 06:34:30;;;;;;;2.77;0.60;;;;;;;6.81;100.00;97137.25;5055225;28;20663;-80
2023/11/06 06:36:57;;;;;;;1.23;0.70;;;;;;;6.74;100.00;97141.28;5053910;28;20233;-80
2023/11/06 06:39:23;;;;;;;1.27;0.67;;;;;;;6.67;100.00;97141.78;5054209;28;20235;-80
2023/11/06 06:41:52;;;;;;;0.70;0.60;;;;;;;6.63;100.00;97146.41;5057020;28;20239;-77
2023/11/06 06:44:18;;;;;;;1.97;0.60;;;;;;;6.59;100.00;97144.94;5056799;28;20322;-81
2023/11/06 06:46:45;;;;;;;1.33;0.73;;;;;;;6.52;100.00;97154.19;5057680;28;20208;-80
2023/11/06 06:49:11;;;;;;;2.33;0.70;;;;;;;6.43;100.00;97165.31;5058898;28;20602;-80
2023/11/06 06:51:38;;;;;;;1.70;0.50;;;;;;;6.37;100.00;97163.13;5058130;28;20229;-80
2023/11/06 06:54:05;;;;;;;0.47;0.47;;;;;;;6.32;100.00;97167.81;5056989;28;20205;-80
2023/11/06 06:56:32;;;;;;;0.77;0.60;;;;;;;6.33;100.00;97176.53;5058855;28;20609;-80
2023/11/06 06:59:00;;;;;;;0.80;0.80;;;;;;;6.33;100.00;97182.63;5060124;28;20216;-80
2023/11/06 07:01:27;;;;;;;1.30;0.70;;;;;;;6.47;100.00;97177.28;5059609;28;20610;-79
2023/11/06 07:03:54;;;;;;;3.33;0.70;;;;;;;6.54;100.00;97175.91;5058939;28;20204;-79
2023/11/06 07:06:20;;;;;;;2.83;0.93;;;;;;;6.62;100.00;97176.25;5058484;28;20276;-80
2023/11/06 07:08:46;;;;;;;0.77;0.70;;;;;;;6.64;100.00;97191.88;5057583;28;20204;-79
2023/11/06 07:11:13;;;;;;;2.13;0.90;;;;;;;6.64;100.00;97184.84;5057316;28;20233;-79
2023/11/06 07:13:39;;;;;;;2.07;0.90;;;;;;;6.77;100.00;97183.06;5057922;28;20217;-81
2023/11/06 07:16:12;;;;;;;2.07;0.90;;;;;;;6.82;100.00;97194.09;5057847;28;20239;-79
2023/11/06 07:18:39;;;;;;;1.67;0.90;;;;;;;6.84;100.00;97197.44;5058149;28;20301;-79
2023/11/06 07:21:06;;;;;;;1.00;0.80;;;;;;;6.91;100.00;97187.34;5057606;28;20224;-79
2023/11/06 07:23:33;;;;;;;2.97;1.20;;;;;;;7.02;100.00;97200.59;5058703;28;20214;-79
2023/11/06 07:26:00;;;;;;;1.30;0.90;;;;;;;7.18;100.00;97202.03;5060172;28;20225;-79
2023/11/06 07:28:26;;;;;;;1.53;0.80;;;;;;;7.19;100.00;97198.44;5059972;28;20212;-79
2023/11/06 07:30:53;;;;;;;1.40;0.90;;;;;;;7.24;100.00;97207.69;5058304;28;20242;-78
2023/11/06 07:33:21;;;;;;;4.03;0.60;;;;;;;7.33;100.00;97207.03;5059332;28;20220;-81
2023/11/06 07:35:47;;;;;;;1.40;0.60;;;;;;;7.43;100.00;97213.34;5057725;28;20441;-79
2023/11/06 07:38:14;;;;;;;0.80;0.70;;;;;;;7.57;100.00;97214.97;5056082;28;20216;-79
2023/11/06 07:40:41;;;;;;;1.23;0.70;;;;;;;7.60;100.00;97218.19;5054319;28;20205;-79
2023/11/06 07:43:08;;;;;;;1.67;0.70;;;;;;;7.63;100.00;97214.53;5056728;28;20220;-82
2023/11/06 07:45:35;;;;;;;1.90;0.53;;;;;;;7.73;100.00;97215.53;5060217;28;20231;-80
2023/11/06 07:48:03;;;;;;;1.57;0.60;;;;;;;7.75;100.00;97218.91;5062968;28;20798;-79
2023/11/06 07:50:32;;;;;;;1.80;0.93;;;;;;;7.79;100.00;97215.09;5065956;28;20652;-78
2023/11/06 07:52:58;;;;;;;2.10;0.77;;;;;;;7.98;100.00;97223.34;5055666;28;20598;-78
2023/11/06 07:55:25;;;;;;;2.07;0.70;;;;;;;8.11;100.00;97210.94;5063797;28;20213;-81
2023/11/06 07:57:51;;;;;;;4.17;0.70;;;;;;;8.11;100.00;97216.22;5062132;28;20225;-80
2023/11/06 08:00:18;;;;;;;2.67;0.50;;;;;;;8.16;100.00;97219.34;5060520;28;20710;-81
2023/11/06 08:02:44;;;;;;;3.67;0.80;;;;;;;8.20;100.00;97219.03;5057387;28;20227;-80
2023/11/06 08:05:11;;;;;;;1.13;0.70;;;;;;;8.23;100.00;97215.34;5056694;28;20270;-82
2023/11/06 08:07:40;;;;;;;1.27;0.73;;;;;;;8.30;100.00;97213.91;5057224;28;20226;-79
2023/11/06 08:10:07;;;;;;;1.93;0.70;;;;;;;8.33;100.00;97213.72;5057265;28;20244;-79
2023/11/06 08:12:34;;;;;;;2.80;0.70;;;;;;;8.40;100.00;97217.56;5057854;28;20235;-79
2023/11/06 08:15:00;;;;;;;3.93;0.80;;;;;;;8.47;100.00;97221.41;5057272;28;20210;-79
2023/11/06 08:17:27;;;;;;;0.53;0.50;;;;;;;8.51;100.00;97220.22;5057305;28;20212;-80
2023/11/06 08:19:53;;;;;;;4.30;1.00;;;;;;;8.53;100.00;97228.84;5056657;28;20212;-80
2023/11/06 08:22:21;;;;;;;3.43;0.73;;;;;;;8.62;100.00;97228.16;5056973;28;20709;-80
2023/11/06 08:24:49;;;;;;;1.60;0.70;;;;;;;8.70;100.00;97225.78;5056612;28;20234;-80
2023/11/06 08:27:16;;;;;;;5.97;3.57;;;;;;;8.72;100.00;97229.13;5056609;28;20210;-80
2023/11/06 08:29:43;;;;;;;2.07;1.10;;;;;;;8.80;100.00;97234.66;5056632;28;20724;-80
2023/11/06 08:32:11;;;;;;;2.80;0.50;;;;;;;8.84;100.00;97238.72;5056343;28;20249;-80
2023/11/06 08:34:40;;;;;;;1.30;1.00;;;;;;;8.93;100.00;97236.22;5054305;28;20209;-80
2023/11/06 08:37:07;;;;;;;2.00;0.57;;;;;;;9.02;100.00;97237.31;5055748;28;20222;-80
2023/11/06 08:39:33;;;;;;;1.13;0.90;;;;;;;9.12;100.00;97241.75;5055437;28;20207;-80
2023/11/06 08:42:01;;;;;;;4.20;1.00;;;;;;;9.30;100.00;97255.34;5055716;28;20226;-80
2023/11/06 08:44:27;;;;;;;0.80;0.60;;;;;;;9.40;100.00;97248.34;5054970;28;20219;-80
2023/11/06 08:46:54;;;;;;;2.83;0.70;;;;;;;9.55;100.00;97252.44;5055810;28;20206;-80
2023/11/06 08:49:20;;;;;;;1.13;0.50;;;;;;;9.67;100.00;97247.03;5055951;28;20211;-80
2023/11/06 08:51:47;;;;;;;0.60;0.50;;;;;;;9.65;100.00;97259.50;5057105;28;20235;-80
2023/11/06 08:54:13;;;;;;;2.30;0.50;;;;;;;9.80;100.00;97260.09;5056361;28;20214;-80
2023/11/06 08:56:40;;;;;;;1.00;0.67;;;;;;;9.87;100.00;97258.63;5055029;28;20207;-80
2023/11/06 08:59:08;;;;;;;1.47;0.63;;;;;;;9.90;100.00;97258.41;5056069;28;20219;-80
2023/11/06 09:01:34;;;;;;;1.00;0.60;;;;;;;9.98;100.00;97255.97;5056463;28;20262;-82
2023/11/06 09:04:01;;;;;;;2.93;0.80;;;;;;;10.08;100.00;97267.47;5056109;28;20587;-79
2023/11/06 09:06:28;;;;;;;2.13;0.90;;;;;;;10.28;100.00;97264.09;5058760;28;20237;-79
2023/11/06 09:08:55;;;;;;;1.13;0.60;;;;;;;10.44;100.00;97246.00;5067496;28;20553;-81
2023/11/06 09:11:21;;;;;;;0.70;0.47;;;;;;;10.83;100.00;97248.00;5053981;28;20231;-80
2023/11/06 09:13:48;;;;;;;0.87;0.50;;;;;;;10.98;100.00;97246.69;5057049;28;20285;-83
2023/11/06 09:16:17;;;;;;;1.43;0.60;;;;;;;11.14;100.00;97249.72;5069097;28;20208;-82
2023/11/06 09:18:44;;;;;;;0.90;0.40;;;;;;;11.24;100.00;97258.50;5076111;28;20223;-79
2023/11/06 09:21:13;;;;;;;0.70;0.60;;;;;;;11.25;100.00;97253.09;5064487;28;20268;-80
2023/11/06 09:23:40;;;;;;;0.73;0.50;;;;;;;11.26;100.00;97262.72;5041829;28;20232;-79
2023/11/06 09:26:09;;;;;;;1.27;0.50;;;;;;;11.18;100.00;97262.53;5040389;28;20279;-79
2023/11/06 09:28:35;;;;;;;1.30;0.80;;;;;;;11.10;100.00;97264.16;5058593;28;20212;-80
2023/11/06 09:31:02;;;;;;;3.30;0.77;;;;;;;11.00;100.00;97263.28;5053781;28;20243;-79
2023/11/06 09:33:30;;;;;;;1.17;0.60;;;;;;;10.91;100.00;97271.97;5055212;28;20214;-79
2023/11/06 09:35:56;;;;;;;4.20;0.60;;;;;;;10.83;100.00;97277.06;5056662;28;20214;-85
2023/11/06 09:38:23;;;;;;;1.90;0.70;;;;;;;10.81;100.00;97289.53;5055122;28;20206;-82
2023/11/06 09:40:49;;;;;;;0.83;0.60;;;;;;;10.88;100.00;97285.44;5075720;28;20219;-82
2023/11/06 09:43:17;;;;;;;1.67;0.60;;;;;;;10.87;100.00;97284.59;5077741;28;20255;-82
2023/11/06 09:45:43;;;;;;;1.63;0.67;;;;;;;10.98;100.00;97286.34;5079200;28;20242;-82
2023/11/06 09:48:12;;;;;;;0.90;0.47;;;;;;;10.94;100.00;97290.22;5078223;28;20204;-82
2023/11/06 09:50:42;;;;;;;0.90;0.60;;;;;;;11.06;100.00;97281.25;5077548;28;20214;-82
2023/11/06 09:53:09;;;;;;;1.23;0.70;;;;;;;11.20;100.00;97275.63;5075470;28;20680;-82
2023/11/06 09:55:36;;;;;;;1.50;0.50;;;;;;;11.26;100.00;97272.47;5078076;28;20210;-81
2023/11/06 09:58:03;;;;;;;1.83;0.57;;;;;;;11.43;100.00;97277.16;5079356;28;20294;-79
2023/11/06 10:00:30;;;;;;;0.73;0.60;;;;;;;11.46;100.00;97274.22;5077234;28;20207;-79
2023/11/06 10:02:56;;;;;;;1.10;0.50;;;;;;;11.55;100.00;97271.63;5077658;28;20233;-81
2023/11/06 10:05:23;;;;;;;1.90;0.50;;;;;;;11.51;100.00;97262.31;5076880;28;20231;-82
2023/11/06 10:07:52;;;;;;;1.40;0.40;;;;;;;11.57;99.67;97263.56;5075666;28;20659;-82
2023/11/06 10:10:22;;;;;;;0.43;0.40;;;;;;;11.55;99.31;97268.16;5075023;28;20207;-79
2023/11/06 10:13:01;;;;;;;0.93;0.40;;;;;;;11.60;98.08;97268.59;5077039;28;20234;-79
2023/11/06 10:15:27;;;;;;;1.37;0.50;;;;;;;11.62;97.39;97277.28;5050847;28;20641;-79
2023/11/06 10:17:56;;;;;;;0.83;0.70;;;;;;;11.61;98.56;97283.53;5055683;28;20207;-79
2023/11/06 10:20:27;;;;;;;0.40;0.40;;;;;;;11.68;97.52;97276.75;5056242;28;20218;-79
2023/11/06 10:22:56;;;;;;;2.00;0.53;;;;;;;11.61;100.00;97276.41;5057152;28;20606;-79
2023/11/06 10:25:27;;;;;;;1.23;0.50;;;;;;;11.61;100.00;97278.25;5054073;28;20230;-79
2023/11/06 10:27:54;;;;;;;1.93;0.60;;;;;;;11.63;100.00;97273.66;5057816;28;20218;-79
2023/11/06 10:30:20;;;;;;;1.27;0.47;;;;;;;11.70;99.60;97275.63;5063121;28;20206;-79
2023/11/06 10:32:47;;;;;;;2.47;0.60;;;;;;;11.79;97.82;97260.78;5057073;28;20379;-78
2023/11/06 10:35:15;;;;;;;1.50;0.70;;;;;;;11.77;99.20;97262.69;5055775;28;20211;-79
2023/11/06 10:37:43;;;;;;;2.10;0.70;;;;;;;11.84;96.31;97255.88;5056728;28;20208;-79
2023/11/06 10:40:13;;;;;;;1.40;0.90;;;;;;;11.89;92.69;97243.09;5041260;28;20590;-79
2023/11/06 10:42:41;;;;;;;1.00;0.50;;;;;;;11.90;93.51;97256.19;5035284;28;20777;-79
2023/11/06 10:45:11;;;;;;;0.40;0.40;;;;;;;12.11;95.96;97258.75;5051227;28;20562;-79
2023/11/06 10:47:43;;;;;;;1.10;0.50;;;;;;;12.29;93.99;97242.03;5056786;28;20495;-79
2023/11/06 10:50:17;;;;;;;0.73;0.50;;;;;;;12.43;94.44;97240.81;5052813;28;20466;-79
2023/11/06 10:52:49;;;;;;;1.07;0.40;;;;;;;12.51;89.38;97225.88;5053819;28;20227;-79
2023/11/06 10:55:17;;;;;;;1.73;0.60;;;;;;;12.63;87.97;97226.56;5055337;28;20206;-79
2023/11/06 10:57:44;;;;;;;2.53;0.90;;;;;;;12.72;85.98;97220.44;5055831;28;20592;-79
2023/11/06 11:00:18;;;;;;;1.27;0.50;;;;;;;12.77;85.68;97221.66;5057536;28;20211;-79
2023/11/06 11:02:49;;;;;;;0.53;0.40;;;;;;;12.90;84.78;97222.19;5057060;28;20746;-79
2023/11/06 11:05:18;;;;;;;1.07;0.37;;;;;;;13.04;84.11;97229.78;5060799;28;20218;-83
2023/11/06 11:07:46;;;;;;;1.27;0.53;;;;;;;13.12;83.87;97227.22;5066856;28;20237;-80
2023/11/06 11:10:17;;;;;;;1.60;0.60;;;;;;;13.19;85.87;97235.44;5049654;28;20515;-80
2023/11/06 11:12:46;;;;;;;0.63;0.40;;;;;;;13.19;87.53;97248.69;5047450;28;20239;-80
2023/11/06 11:15:13;;;;;;;0.50;0.50;;;;;;;13.24;85.10;97231.38;5054609;28;20216;-80
2023/11/06 11:17:55;;;;;;;0.80;0.60;;;;;;;13.23;82.82;97221.75;5061317;28;20205;-80
2023/11/06 11:20:21;;;;;;;0.93;0.60;;;;;;;13.33;82.14;97227.03;5055848;28;20218;-80
2023/11/06 11:23:03;;;;;;;0.43;0.33;;;;;;;13.35;82.71;97233.03;5050326;28;20256;-80
2023/11/06 11:25:57;;;;;;;1.13;0.40;;;;;;;13.37;83.32;97233.69;5057261;28;20247;-81
2023/11/06 11:28:26;;;;;;;0.97;0.40;;;;;;;13.30;82.89;97230.81;5052923;28;20273;-80
2023/11/06 11:30:53;;;;;;;2.30;0.60;;;;;;;13.15;84.34;97234.06;5050864;28;20322;-78